地図

経路データ

SID SEASON NUMBER BASIN SUBBASIN NAME ISO_TIME NATURE LAT LON WMO_WIND WMO_PRES WMO_AGENCY TRACK_TYPE DIST2LAND LANDFALL IFLAG USA_AGENCY USA_ATCF_ID USA_LAT USA_LON USA_RECORD USA_STATUS USA_WIND USA_PRES USA_SSHS USA_R34_NE USA_R34_SE USA_R34_SW USA_R34_NW USA_R50_NE USA_R50_SE USA_R50_SW USA_R50_NW USA_R64_NE USA_R64_SE USA_R64_SW USA_R64_NW USA_POCI USA_ROCI USA_RMW USA_EYE TOKYO_LAT TOKYO_LON TOKYO_GRADE TOKYO_WIND TOKYO_PRES TOKYO_R50_DIR TOKYO_R50_LONG TOKYO_R50_SHORT TOKYO_R30_DIR TOKYO_R30_LONG TOKYO_R30_SHORT TOKYO_LAND CMA_LAT CMA_LON CMA_CAT CMA_WIND CMA_PRES HKO_LAT HKO_LON HKO_CAT HKO_WIND HKO_PRES NEWDELHI_LAT NEWDELHI_LON NEWDELHI_GRADE NEWDELHI_WIND NEWDELHI_PRES NEWDELHI_CI NEWDELHI_DP NEWDELHI_POCI REUNION_LAT REUNION_LON REUNION_TYPE REUNION_WIND REUNION_PRES REUNION_TNUM REUNION_CI REUNION_RMW REUNION_R34_NE REUNION_R34_SE REUNION_R34_SW REUNION_R34_NW REUNION_R50_NE REUNION_R50_SE REUNION_R50_SW REUNION_R50_NW REUNION_R64_NE REUNION_R64_SE REUNION_R64_SW REUNION_R64_NW BOM_LAT BOM_LON BOM_TYPE BOM_WIND BOM_PRES BOM_TNUM BOM_CI BOM_RMW BOM_R34_NE BOM_R34_SE BOM_R34_SW BOM_R34_NW BOM_R50_NE BOM_R50_SE BOM_R50_SW BOM_R50_NW BOM_R64_NE BOM_R64_SE BOM_R64_SW BOM_R64_NW BOM_ROCI BOM_POCI BOM_EYE BOM_POS_METHOD BOM_PRES_METHOD NADI_LAT NADI_LON NADI_CAT NADI_WIND NADI_PRES WELLINGTON_LAT WELLINGTON_LON WELLINGTON_WIND WELLINGTON_PRES DS824_LAT DS824_LON DS824_STAGE DS824_WIND DS824_PRES TD9636_LAT TD9636_LON TD9636_STAGE TD9636_WIND TD9636_PRES TD9635_LAT TD9635_LON TD9635_WIND TD9635_PRES TD9635_ROCI NEUMANN_LAT NEUMANN_LON NEUMANN_CLASS NEUMANN_WIND NEUMANN_PRES MLC_LAT MLC_LON MLC_CLASS MLC_WIND MLC_PRES USA_GUST BOM_GUST BOM_GUST_PER REUNION_GUST REUNION_GUST_PER USA_SEAHGT USA_SEARAD_NE USA_SEARAD_SE USA_SEARAD_SW USA_SEARAD_NW STORM_SPEED STORM_DIR
1957258N17147 1957 57 WP MM ELAINE 1957-09-14 18:00:00 TS 16.8000 147.267 1004 tokyo main 2117 2110 OOO______OOO__ jtwc_wp WP121957 17.0000 147.200 90 2 16.0000 145.800 2 1004 0 0 0 16.8000 149.000 1 29 1000 17.0000 147.200 TC 90 17.0000 147.200 3 90 17.0000 147.200 90 960 60 11 293
1957258N17147 1957 57 WP MM ELAINE 1957-09-14 21:00:00 TS 17.0187 146.717 main 2110 2062 PPP______PPP__ WP121957 17.1176 146.720 90 2 16.5752 145.438 2 1003 0 0 17.0510 147.988 1 43 992 17.1176 146.720 TC 90 17.1331 146.714 3 90 17.1176 146.720 90 958 60 12 294
1957258N17147 1957 57 WP MM ELAINE 1957-09-15 00:00:00 TS 17.2667 146.150 1002 tokyo main 2062 2023 OOO______OOO__ jtwc_wp WP121957 17.3000 146.200 90 2 17.1000 145.100 2 1002 0 0 0 17.3000 147.000 3 58 985 17.3000 146.200 TC 90 17.3000 146.200 4 90 17.3000 146.200 90 957 60 12 296
1957258N17147 1957 57 WP MM ELAINE 1957-09-15 03:00:00 TS 17.5613 145.557 main 2012 1959 PPP______PPP__ WP121957 17.5849 145.615 90 2 17.5374 144.800 2 976 0 0 17.5497 146.062 3 77 968 17.5849 145.615 TC 90 17.5260 145.636 4 90 17.5849 145.615 90 955 90 13 298
1957258N17147 1957 57 WP MM ELAINE 1957-09-15 06:00:00 TS 17.8665 144.956 950 tokyo main 1959 1911 OOO______OPO__ jtwc_wp WP121957 17.9000 145.000 90 2 17.9000 144.500 9 950 0 0 0 17.8000 145.200 5 97 952 17.9000 145.000 TC 90 17.7989 145.034 4 90 17.9000 145.000 90 954 120 13 297
1957258N17147 1957 57 WP MM ELAINE 1957-09-15 09:00:00 TS 18.1427 144.369 main 1911 1854 PPP______PPP__ WP121957 18.1572 144.407 90 2 18.2373 144.180 9 950 0 0 18.0497 144.397 5 97 952 18.1572 144.407 TC 90 18.0973 144.415 4 90 18.1572 144.407 90 953 120 12 296
1957258N17147 1957 57 WP MM ELAINE 1957-09-15 12:00:00 TS 18.4000 143.783 950 tokyo main 1854 1809 OOO______OOO__ jtwc_wp WP121957 18.4000 143.800 90 2 18.5000 143.800 9 950 0 0 0 18.3000 143.700 5 97 952 18.4000 143.800 TC 90 18.4000 143.800 4 90 18.4000 143.800 90 952 120 12 293
1957258N17147 1957 57 WP MM ELAINE 1957-09-15 15:00:00 TS 18.6193 143.181 main 1809 1764 PPP______PPP__ WP121957 18.6426 143.135 90 2 18.6273 143.344 9 950 0 0 18.5270 143.127 5 97 952 18.6426 143.135 TC 90 18.6339 143.212 4 91 18.6426 143.135 90 951 150 12 292
1957258N17147 1957 57 WP MM ELAINE 1957-09-15 18:00:00 TS 18.8624 142.589 950 tokyo main 1754 1715 OOO______OPO__ jtwc_wp WP121957 18.9000 142.500 90 2 18.8000 142.800 9 950 0 0 0 18.8000 142.600 5 97 952 18.9000 142.500 TC 90 18.8743 142.633 4 92 18.9000 142.500 90 950 180 12 297
1957258N17147 1957 57 WP MM ELAINE 1957-09-15 21:00:00 TS 19.1678 142.024 main 1700 1651 PPP______PPP__ WP121957 19.1622 141.977 92 2 19.2052 142.158 9 950 0 0 19.1625 141.992 5 106 951 19.1622 141.977 TC 92 19.1527 142.062 4 93 19.1622 141.977 92 946 180 13 303
1957258N17147 1957 57 WP MM ELAINE 1957-09-16 00:00:00 TS 19.5500 141.483 950 tokyo main 1641 1582 OOO______OOO__ jtwc_wp WP121957 19.5000 141.500 95 2 19.7000 141.500 9 950 0 0 0 19.6000 141.400 6 116 951 19.5000 141.500 TC 95 19.5000 141.500 4 95 19.5000 141.500 95 942 180 13 310
1957258N17147 1957 57 WP MM ELAINE 1957-09-16 03:00:00 TS 20.0118 140.955 main 1582 1513 PPP______PPP__ WP121957 19.9622 141.015 97 3 20.1425 140.897 9 947 0 0 20.0922 140.885 6 126 946 19.9622 141.015 TC 97 19.9492 140.903 4 96 19.9622 141.015 97 936 210 14 315
1957258N17147 1957 57 WP MM ELAINE 1957-09-16 06:00:00 TS 20.5280 140.436 945 tokyo main 1510 1436 OOO______OPO__ jtwc_wp WP121957 20.5000 140.500 100 3 20.6000 140.400 9 945 0 0 0 20.6000 140.400 6 136 942 20.5000 140.500 TC 100 20.4679 140.319 4 97 20.5000 140.500 100 931 240 14 316
1957258N17147 1957 57 WP MM ELAINE 1957-09-16 09:00:00 TS 21.0484 139.897 main 1436 1351 PPP______PPP__ WP121957 21.0427 139.885 100 3 21.0922 140.055 9 945 0 0 21.0424 139.899 6 136 942 21.0427 139.885 TC 100 21.0276 139.775 4 98 21.0427 139.885 100 932 240 14 317
1957258N17147 1957 57 WP MM ELAINE 1957-09-16 12:00:00 TS 21.5833 139.400 945 tokyo main 1351 1282 OOO______OOO__ jtwc_wp WP121957 21.6000 139.300 100 3 21.6000 139.800 9 945 0 0 0 21.5000 139.400 6 136 942 21.6000 139.300 TC 100 21.6000 139.300 4 100 21.6000 139.300 100 933 240 14 321
1957258N17147 1957 57 WP MM ELAINE 1957-09-16 15:00:00 TS 22.1257 138.961 main 1282 1213 PPP______PPP__ WP121957 22.1498 138.840 110 3 22.0924 139.550 9 945 0 0 22.0502 138.855 6 136 942 22.1498 138.840 TC 110 22.1625 138.844 4 105 22.1498 138.840 110 934 240 13 326
1957258N17147 1957 57 WP MM ELAINE 1957-09-16 18:00:00 TS 22.6715 138.611 945 tokyo main 1203 1140 OOO______OPO__ jtwc_wp WP121957 22.7000 138.500 120 4 22.6000 139.300 9 945 0 0 0 22.6000 138.400 6 136 943 22.7000 138.500 TC 120 22.7292 138.469 4 110 22.7000 138.500 120 935 240 12 332
1957258N17147 1957 57 WP MM ELAINE 1957-09-16 21:00:00 TS 23.2026 138.337 main 1140 1089 PPP______PPP__ WP121957 23.2499 138.232 120 4 23.1425 139.007 9 945 0 0 23.0423 138.110 6 136 943 23.2499 138.232 TC 120 23.2813 138.210 4 115 23.2499 138.232 120 936 270 11 340
1957258N17147 1957 57 WP MM ELAINE 1957-09-17 00:00:00 TS 23.7333 138.183 945 tokyo main 1089 1029 OOO______OOO__ jtwc_wp WP121957 23.8000 138.100 120 4 23.7000 138.700 9 945 0 0 0 23.5000 138.000 6 136 944 23.8000 138.100 TC 120 23.8000 138.100 4 120 23.8000 138.100 120 937 300 11 348
1957258N17147 1957 57 WP MM ELAINE 1957-09-17 03:00:00 TS 24.2915 138.092 main 1029 987 PPP______PPP__ WP121957 24.3873 138.060 115 4 24.2725 138.289 9 945 0 0 24.0923 138.010 6 136 944 24.3873 138.060 TC 115 24.2222 138.070 4 115 24.3873 138.060 115 939 270 11 1
1957258N17147 1957 57 WP MM ELAINE 1957-09-17 06:00:00 TS 24.8027 138.184 945 tokyo main 987 951 OOO______OPO__ jtwc_wp WP121957 24.9000 138.200 110 3 24.8000 138.100 9 945 0 0 0 24.7000 138.200 6 136 945 24.9000 138.200 TC 110 24.6165 138.202 4 110 24.9000 138.200 110 941 240 10 22
1957258N17147 1957 57 WP MM ELAINE 1957-09-17 09:00:00 TS 25.1711 138.494 main 951 931 PPP______PPP__ WP121957 25.1923 138.511 105 3 25.2074 138.407 9 950 0 0 25.2148 138.518 6 126 950 25.1923 138.511 TC 105 25.0277 138.507 4 105 25.1923 138.511 105 945 270 11 45
1957258N17147 1957 57 WP MM ELAINE 1957-09-17 12:00:00 TS 25.5500 139.000 955 tokyo main 923 899 OOO______OOO__ jtwc_wp WP121957 25.5000 139.000 100 3 25.6000 139.000 9 955 0 0 0 25.7000 139.000 6 116 955 25.5000 139.000 TC 100 25.5000 139.000 4 100 25.5000 139.000 100 950 300 13 47
1957258N17147 1957 57 WP MM ELAINE 1957-09-17 15:00:00 TS 26.0626 139.561 main 893 868 PPP______PPP__ WP121957 26.0391 139.546 100 3 26.0470 139.584 9 962 0 0 26.1620 139.569 6 106 960 26.0391 139.546 TC 100 26.0494 139.577 4 97 26.0391 139.546 100 957 300 16 46
1957258N17147 1957 57 WP MM ELAINE 1957-09-17 18:00:00 TS 26.6777 140.308 970 tokyo main 863 843 OOO______OPO__ jtwc_wp WP121957 26.7000 140.300 100 3 26.6000 140.300 9 970 0 0 0 26.7000 140.300 5 97 966 26.7000 140.300 TC 100 26.6660 140.349 4 95 26.7000 140.300 100 964 300 20 49
1957258N17147 1957 57 WP MM ELAINE 1957-09-17 21:00:00 TS 27.3714 141.259 main 837 791 PPP______PPP__ WP121957 27.3779 141.325 95 2 27.3107 141.082 9 970 0 0 27.4345 141.175 5 97 968 27.3779 141.325 TC 95 27.3498 141.322 4 92 27.3779 141.325 95 966 240 23 52
1957258N17147 1957 57 WP MM ELAINE 1957-09-18 00:00:00 TS 28.1167 142.383 970 tokyo main 794 756 OOO______OOO__ jtwc_wp WP121957 28.1000 142.500 90 2 28.1000 142.100 9 970 0 0 0 28.2000 142.200 5 97 970 28.1000 142.500 TC 90 28.1000 142.500 4 90 28.1000 142.500 90 969 180 24 54
1957258N17147 1957 57 WP MM ELAINE 1957-09-18 03:00:00 TS 28.8066 143.499 main 760 748 PPP______PPP__ WP121957 28.8075 143.514 90 2 28.8340 143.418 9 975 0 0 28.7502 143.186 5 97 967 28.8075 143.514 TC 90 28.8328 143.850 4 88 28.8075 143.514 90 967 150 26 56
1957258N17147 1957 57 WP MM ELAINE 1957-09-18 06:00:00 TS 29.5713 144.884 980 tokyo main 753 753 OOO______OPO__ jtwc_wp WP121957 29.6000 144.800 90 2 29.6000 145.000 9 980 0 0 0 29.4000 144.500 5 97 965 29.6000 144.800 TC 90 29.6280 145.406 4 86 29.6000 144.800 90 965 120 33 60
1957258N17147 1957 57 WP MM ELAINE 1957-09-18 09:00:00 TS 30.4580 146.753 main 793 793 PPP______PPP__ WP121957 30.4935 146.738 85 2 30.3888 146.730 9 980 0 0 30.3706 146.464 5 97 963 30.4935 146.738 TC 85 30.5084 147.108 4 84 30.4935 146.738 86 963 90 39 61
1957258N17147 1957 57 WP MM ELAINE 1957-09-18 12:00:00 TS 31.4667 148.817 980 tokyo main 866 866 OOO______OOO__ jtwc_wp WP121957 31.5000 148.900 80 1 31.3000 148.600 9 980 0 0 0 31.5000 148.700 5 97 961 31.5000 148.900 TC 80 31.5000 148.900 4 82 31.5000 148.900 82 961 60 40 59
1957258N17147 1957 57 WP MM ELAINE 1957-09-18 15:00:00 TS 32.5560 150.771 main 972 972 PPP______PPP__ WP121957 32.5934 150.821 77 1 32.2963 150.671 9 980 0 0 32.6385 150.754 5 97 958 32.5934 150.821 TC 77 32.6206 150.741 4 79 32.5934 150.821 78 958 90 40 55
1957258N17147 1957 57 WP MM ELAINE 1957-09-18 18:00:00 TS 33.7705 152.674 980 tokyo main 1095 1095 OOO______OPO__ jtwc_wp WP121957 33.8000 152.700 75 1 33.6000 152.500 9 980 0 0 0 33.8000 152.800 5 97 956 33.8000 152.700 TC 75 33.8405 152.632 4 76 33.8000 152.700 75 956 120 41 50
1957258N17147 1957 57 WP MM ELAINE 1957-09-18 21:00:00 TS 35.1725 154.521 main 1177 1148 PPP______PPP__ WP121957 35.1513 154.677 72 1 35.5310 153.616 9 985 0 0 34.9057 154.927 5 968 35.1513 154.677 TC 72 35.1158 154.584 4 73 35.1513 154.677 72 956 120 40 47
1957258N17147 1957 57 WP MM ELAINE 1957-09-19 00:00:00 MX 36.5200 156.260 990 tokyo main 1152 1131 OOO______OOO__ jtwc_wp WP121957 36.4000 156.600 70 1 37.4000 154.500 9 990 0 0 0 36.0000 157.000 9 980 36.4000 156.600 TC 70 36.4000 156.600 4 70 36.4000 156.600 70 956 120 36 50
1957258N17147 1957 57 WP MM ELAINE 1957-09-19 03:00:00 MX 37.4418 157.938 main 1136 1132 PPP______P_P__ WP121957 37.0947 158.458 70 1 38.4774 155.626 9 996 0 0 37.1659 159.003 9 991 37.0947 158.458 TC 70 4 37.3104 158.352 70 959 90 31 55
1957258N17147 1957 57 WP MM ELAINE 1957-09-19 06:00:00 MX 38.3294 159.459 1002 tokyo main 1140 1089 OOO______O_O__ jtwc_wp WP121957 38.0000 160.000 70 1 39.2000 156.900 6 1002 0 0 0 38.2000 160.800 9 1002 38.0000 160.000 TC 70 4 38.0000 160.000 70 962 60 32 43
1957258N17147 1957 57 WP MM ELAINE 1957-09-19 09:00:00 MX 39.7511 160.701 main 1088 1074 PPP______P____ WP121957 40.0755 161.010 62 0 39.9400 158.473 6 1002 0 0 38.9135 162.313 9 1002 40.0755 161.010 TC 62 4 33 35
1957258N17147 1957 57 WP MM ELAINE 1957-09-19 12:00:00 MX 41.0250 161.900 1002 tokyo main 1081 1081 OOO______O____ jtwc_wp WP121957 42.0000 162.000 55 0 40.6000 160.000 6 1002 0 0 0 39.5000 163.600 9 1002 42.0000 162.000 TC 55 27 45
1957258N17147 1957 57 WP MM ELAINE 1957-09-19 15:00:00 MX 41.6432 163.184 main 1107 1101 PPP______P____ WP121957 42.5276 163.516 50 0 41.3465 160.843 6 1003 0 0 40.1711 164.861 9 1003 42.5276 163.516 TC 50 22 66
1957258N17147 1957 57 WP MM ELAINE 1957-09-19 18:00:00 MX 41.9250 164.625 1004 tokyo main 1137 1137 OOO______O____ jtwc_wp WP121957 42.5000 165.200 45 0 41.9000 162.100 6 1004 0 0 0 40.8000 166.000 9 1004 42.5000 165.200 TC 45 24 78
1957258N17147 1957 57 WP MM ELAINE 1957-09-19 21:00:00 MX 42.1566 166.321 main 1191 1191 PPP______P____ WP121957 42.6698 166.829 42 0 41.9532 164.829 6 1004 0 0 41.3337 166.797 9 1004 42.6698 166.829 TC 42 27 83
1957258N17147 1957 57 WP MM ELAINE 1957-09-20 00:00:00 MX 42.2286 168.214 1004 tokyo main 1292 1292 OOO______O____ jtwc_wp WP121957 42.8000 168.500 40 0 41.8000 168.000 6 1004 0 0 0 41.8000 168.000 9 1004 42.8000 168.500 TC 40 31 88
1957258N17147 1957 57 WP MM ELAINE 1957-09-20 03:00:00 MX 42.2876 170.544 main 1401 1401 PPP______P____ WP121957 42.9108 170.231 35 0 41.7539 170.850 6 1004 0 0 42.1980 170.552 9 1004 42.9108 170.231 TC 35 35 88
1957258N17147 1957 57 WP MM ELAINE 1957-09-20 06:00:00 MX 42.3600 172.960 1004 tokyo main 1522 1522 OOO______O____ jtwc_wp WP121957 43.0000 172.000 30 -1 41.9000 173.200 6 1004 0 0 0 42.5000 173.200 9 1004 43.0000 172.000 TC 30 31 84
1957258N17147 1957 57 WP MM ELAINE 1957-09-20 09:00:00 ET 42.6121 174.798 main 1591 1565 _PP___________ WP121957 -1 42.4397 174.794 6 1004 0 0 42.7846 174.803 9 1004 TC 22 71
1957258N17147 1957 57 WP MM ELAINE 1957-09-20 12:00:00 ET 43.1000 175.800 1004 tokyo main 1565 1499 _OO___________ -1 43.1000 175.800 6 1004 0 0 0 43.1000 175.800 9 1004 15 52
1957258N17147 1957 57 WP MM ELAINE 1957-09-20 15:00:00 ET 43.5562 176.447 main 1491 1434 _PP___________ -1 43.5786 176.448 6 1004 0 0 43.5337 176.446 9 1004 12 47
1957258N17147 1957 57 WP MM ELAINE 1957-09-20 18:00:00 ET 43.9000 177.000 1004 tokyo main 1434 1379 _OO___________ -1 43.9000 177.000 6 1004 0 0 0 43.9000 177.000 9 1004 11 69
1957258N17147 1957 57 WP MM ELAINE 1957-09-20 21:00:00 ET 43.9667 177.926 main 1379 1330 _PP___________ -1 43.9355 177.945 6 1004 0 0 44.0292 177.886 9 1004 14 86
1957258N17147 1957 57 WP MM ELAINE 1957-09-21 00:00:00 ET 44.0000 179.000 1004 tokyo main 1325 1241 _OO___________ -1 44.0000 179.000 6 1004 0 0 0 44.0000 179.000 9 1004 16 74
1957258N17147 1957 57 EP CP ELAINE 1957-09-21 03:00:00 ET 44.3934 180.012 main 1241 1146 _P____________ -1 44.3934 -179.988 6 1004 0 0 9 17 55
1957258N17147 1957 57 EP CP ELAINE 1957-09-21 06:00:00 ET 45.0000 181.000 main 1141 _O____________ -1 45.0000 181.000 6 1004 0 0 0 18 49

デジタル台風データ・検索

IBTrACS Databaseについて

本データベースは、米国NOAAが公開する1842年以降の世界の熱帯低気圧のベストトラックデータアーカイブInternational Best Track Archive for Climate Stewardship (IBTrACS)を、ウェブで閲覧しやすい形式に変換したものです。

最終更新日:2021-12-01